sensor_id;sensor_type;location;lat;lon;timestamp;temperature;humidity
50989;DHT22;37008;52.210;21.112;2023-04-28T00:00:29;1.80;99.90
50989;DHT22;37008;52.210;21.112;2023-04-28T00:02:55;1.70;99.90
50989;DHT22;37008;52.210;21.112;2023-04-28T00:05:20;1.60;99.90
50989;DHT22;37008;52.210;21.112;2023-04-28T00:07:49;1.50;99.90
50989;DHT22;37008;52.210;21.112;2023-04-28T00:10:15;1.40;99.90
50989;DHT22;37008;52.210;21.112;2023-04-28T00:12:40;1.30;99.90
50989;DHT22;37008;52.210;21.112;2023-04-28T00:15:06;1.30;99.90
50989;DHT22;37008;52.210;21.112;2023-04-28T00:17:32;1.20;99.90
50989;DHT22;37008;52.210;21.112;2023-04-28T00:19:58;1.00;99.90
50989;DHT22;37008;52.210;21.112;2023-04-28T00:22:24;1.00;99.90
50989;DHT22;37008;52.210;21.112;2023-04-28T00:24:49;0.90;99.90
50989;DHT22;37008;52.210;21.112;2023-04-28T00:27:15;0.90;99.90
50989;DHT22;37008;52.210;21.112;2023-04-28T00:29:41;0.80;99.90
50989;DHT22;37008;52.210;21.112;2023-04-28T00:32:06;0.80;99.90
50989;DHT22;37008;52.210;21.112;2023-04-28T00:34:32;0.80;99.90
50989;DHT22;37008;52.210;21.112;2023-04-28T00:36:58;0.70;99.90
50989;DHT22;37008;52.210;21.112;2023-04-28T00:39:24;0.70;99.90
50989;DHT22;37008;52.210;21.112;2023-04-28T00:41:51;0.60;99.90
50989;DHT22;37008;52.210;21.112;2023-04-28T00:44:16;0.50;99.90
50989;DHT22;37008;52.210;21.112;2023-04-28T00:46:42;0.50;99.90
50989;DHT22;37008;52.210;21.112;2023-04-28T00:49:08;0.40;99.90
50989;DHT22;37008;52.210;21.112;2023-04-28T00:51:34;0.40;99.90
50989;DHT22;37008;52.210;21.112;2023-04-28T00:54:00;0.40;99.90
50989;DHT22;37008;52.210;21.112;2023-04-28T00:56:27;0.30;99.90
50989;DHT22;37008;52.210;21.112;2023-04-28T00:58:55;0.30;99.90
50989;DHT22;37008;52.210;21.112;2023-04-28T01:01:21;0.20;99.90
50989;DHT22;37008;52.210;21.112;2023-04-28T01:03:47;0.10;99.90
50989;DHT22;37008;52.210;21.112;2023-04-28T01:06:13;0.10;99.90
50989;DHT22;37008;52.210;21.112;2023-04-28T01:08:39;0.00;99.90
50989;DHT22;37008;52.210;21.112;2023-04-28T01:11:05;0.00;99.90
50989;DHT22;37008;52.210;21.112;2023-04-28T01:13:31;-0.10;99.90
50989;DHT22;37008;52.210;21.112;2023-04-28T01:15:57;-0.10;99.90
50989;DHT22;37008;52.210;21.112;2023-04-28T01:18:23;-0.20;99.90
50989;DHT22;37008;52.210;21.112;2023-04-28T01:20:49;-0.20;99.90
50989;DHT22;37008;52.210;21.112;2023-04-28T01:23:16;-0.30;99.90
50989;DHT22;37008;52.210;21.112;2023-04-28T01:25:43;-0.30;99.90
50989;DHT22;37008;52.210;21.112;2023-04-28T01:28:09;-0.30;99.90
50989;DHT22;37008;52.210;21.112;2023-04-28T01:30:35;-0.30;99.90
50989;DHT22;37008;52.210;21.112;2023-04-28T01:33:01;-0.40;99.90
50989;DHT22;37008;52.210;21.112;2023-04-28T01:35:27;-0.50;99.90
50989;DHT22;37008;52.210;21.112;2023-04-28T01:37:53;-0.50;99.90
50989;DHT22;37008;52.210;21.112;2023-04-28T01:40:18;-0.50;99.90
50989;DHT22;37008;52.210;21.112;2023-04-28T01:42:44;-0.60;99.90
50989;DHT22;37008;52.210;21.112;2023-04-28T01:45:10;-0.60;99.90
50989;DHT22;37008;52.210;21.112;2023-04-28T01:47:36;-0.70;99.90
50989;DHT22;37008;52.210;21.112;2023-04-28T01:50:01;-0.70;99.90
50989;DHT22;37008;52.210;21.112;2023-04-28T01:52:27;-0.80;99.90
50989;DHT22;37008;52.210;21.112;2023-04-28T01:54:53;-0.80;99.90
50989;DHT22;37008;52.210;21.112;2023-04-28T01:57:19;-0.80;99.90
50989;DHT22;37008;52.210;21.112;2023-04-28T01:59:45;-0.90;99.90
50989;DHT22;37008;52.210;21.112;2023-04-28T02:02:10;-0.90;99.90
50989;DHT22;37008;52.210;21.112;2023-04-28T02:04:39;-0.90;99.90
50989;DHT22;37008;52.210;21.112;2023-04-28T02:07:05;-0.90;99.90
50989;DHT22;37008;52.210;21.112;2023-04-28T02:09:31;-1.00;99.90
50989;DHT22;37008;52.210;21.112;2023-04-28T02:11:57;-1.00;99.90
50989;DHT22;37008;52.210;21.112;2023-04-28T02:14:24;-1.00;99.90
50989;DHT22;37008;52.210;21.112;2023-04-28T02:16:50;-1.10;99.90
50989;DHT22;37008;52.210;21.112;2023-04-28T02:19:15;-1.10;99.90
50989;DHT22;37008;52.210;21.112;2023-04-28T02:21:41;-1.10;99.90
50989;DHT22;37008;52.210;21.112;2023-04-28T02:24:07;-1.10;99.90
50989;DHT22;37008;52.210;21.112;2023-04-28T02:26:34;-1.10;99.90
50989;DHT22;37008;52.210;21.112;2023-04-28T02:29:00;-1.10;99.90
50989;DHT22;37008;52.210;21.112;2023-04-28T02:31:25;-1.10;99.90
50989;DHT22;37008;52.210;21.112;2023-04-28T02:33:51;-1.20;99.90
50989;DHT22;37008;52.210;21.112;2023-04-28T02:36:17;-1.10;99.90
50989;DHT22;37008;52.210;21.112;2023-04-28T02:38:43;-1.10;99.90
50989;DHT22;37008;52.210;21.112;2023-04-28T02:41:09;-1.20;99.90
50989;DHT22;37008;52.210;21.112;2023-04-28T02:43:35;-1.20;99.90
50989;DHT22;37008;52.210;21.112;2023-04-28T02:46:02;-1.20;99.90
50989;DHT22;37008;52.210;21.112;2023-04-28T02:48:28;-1.20;99.90
50989;DHT22;37008;52.210;21.112;2023-04-28T02:50:54;-1.20;99.90
50989;DHT22;37008;52.210;21.112;2023-04-28T02:53:20;-1.20;99.90
50989;DHT22;37008;52.210;21.112;2023-04-28T02:55:46;-1.20;99.90
50989;DHT22;37008;52.210;21.112;2023-04-28T02:58:11;-1.20;99.90
50989;DHT22;37008;52.210;21.112;2023-04-28T03:00:37;-1.20;99.90
50989;DHT22;37008;52.210;21.112;2023-04-28T03:03:03;-1.20;99.90
50989;DHT22;37008;52.210;21.112;2023-04-28T03:05:28;-1.20;99.90
50989;DHT22;37008;52.210;21.112;2023-04-28T03:07:54;-1.20;99.90
50989;DHT22;37008;52.210;21.112;2023-04-28T03:10:20;-1.20;99.90
50989;DHT22;37008;52.210;21.112;2023-04-28T03:12:45;-1.20;99.90
50989;DHT22;37008;52.210;21.112;2023-04-28T03:15:11;-1.20;99.90
50989;DHT22;37008;52.210;21.112;2023-04-28T03:17:37;-1.20;99.90
50989;DHT22;37008;52.210;21.112;2023-04-28T03:20:06;-1.10;99.90
50989;DHT22;37008;52.210;21.112;2023-04-28T03:22:33;-1.10;99.90
50989;DHT22;37008;52.210;21.112;2023-04-28T03:24:58;-1.10;99.90
50989;DHT22;37008;52.210;21.112;2023-04-28T03:27:24;-1.10;99.90
50989;DHT22;37008;52.210;21.112;2023-04-28T03:29:50;-1.10;99.90
50989;DHT22;37008;52.210;21.112;2023-04-28T03:32:15;-1.10;99.90
50989;DHT22;37008;52.210;21.112;2023-04-28T03:34:41;-1.10;99.90
50989;DHT22;37008;52.210;21.112;2023-04-28T03:37:06;-1.10;99.90
50989;DHT22;37008;52.210;21.112;2023-04-28T03:39:32;-1.10;99.90
50989;DHT22;37008;52.210;21.112;2023-04-28T03:41:58;-1.00;99.90
50989;DHT22;37008;52.210;21.112;2023-04-28T03:44:23;-1.00;99.90
50989;DHT22;37008;52.210;21.112;2023-04-28T03:46:49;-1.00;99.90
50989;DHT22;37008;52.210;21.112;2023-04-28T03:49:15;-1.00;99.90
50989;DHT22;37008;52.210;21.112;2023-04-28T03:51:40;-1.00;99.90
50989;DHT22;37008;52.210;21.112;2023-04-28T03:54:06;-0.90;99.90
50989;DHT22;37008;52.210;21.112;2023-04-28T03:56:32;-0.90;99.90
50989;DHT22;37008;52.210;21.112;2023-04-28T03:58:58;-0.90;99.90
50989;DHT22;37008;52.210;21.112;2023-04-28T04:01:24;-0.80;99.90
50989;DHT22;37008;52.210;21.112;2023-04-28T04:03:49;-0.80;99.90
50989;DHT22;37008;52.210;21.112;2023-04-28T04:06:15;-0.70;99.90
50989;DHT22;37008;52.210;21.112;2023-04-28T04:08:41;-0.60;99.90
50989;DHT22;37008;52.210;21.112;2023-04-28T04:11:07;-0.60;99.90
50989;DHT22;37008;52.210;21.112;2023-04-28T04:13:32;-0.50;99.90
50989;DHT22;37008;52.210;21.112;2023-04-28T04:15:58;-0.50;99.90
50989;DHT22;37008;52.210;21.112;2023-04-28T04:18:23;-0.40;99.90
50989;DHT22;37008;52.210;21.112;2023-04-28T04:20:49;-0.30;99.90
50989;DHT22;37008;52.210;21.112;2023-04-28T04:23:15;-0.20;99.90
50989;DHT22;37008;52.210;21.112;2023-04-28T04:25:41;-0.10;99.90
50989;DHT22;37008;52.210;21.112;2023-04-28T04:28:07;0.00;99.90
50989;DHT22;37008;52.210;21.112;2023-04-28T04:30:32;0.10;99.90
50989;DHT22;37008;52.210;21.112;2023-04-28T04:32:58;0.20;99.90
50989;DHT22;37008;52.210;21.112;2023-04-28T04:35:24;0.30;99.90
50989;DHT22;37008;52.210;21.112;2023-04-28T04:37:49;0.40;99.90
50989;DHT22;37008;52.210;21.112;2023-04-28T04:40:16;0.50;99.90
50989;DHT22;37008;52.210;21.112;2023-04-28T04:42:41;0.60;99.90
50989;DHT22;37008;52.210;21.112;2023-04-28T04:45:07;0.70;99.90
50989;DHT22;37008;52.210;21.112;2023-04-28T04:47:33;0.90;99.90
50989;DHT22;37008;52.210;21.112;2023-04-28T04:49:59;1.00;99.90
50989;DHT22;37008;52.210;21.112;2023-04-28T04:52:24;1.20;99.90
50989;DHT22;37008;52.210;21.112;2023-04-28T04:54:50;1.30;99.90
50989;DHT22;37008;52.210;21.112;2023-04-28T04:57:16;1.40;99.90
50989;DHT22;37008;52.210;21.112;2023-04-28T04:59:41;1.60;99.90
50989;DHT22;37008;52.210;21.112;2023-04-28T05:02:07;1.70;99.90
50989;DHT22;37008;52.210;21.112;2023-04-28T05:04:33;2.00;99.90
50989;DHT22;37008;52.210;21.112;2023-04-28T05:06:59;2.10;99.90
50989;DHT22;37008;52.210;21.112;2023-04-28T05:09:25;2.20;99.90
50989;DHT22;37008;52.210;21.112;2023-04-28T05:11:51;2.30;99.90
50989;DHT22;37008;52.210;21.112;2023-04-28T05:14:16;2.60;99.90
50989;DHT22;37008;52.210;21.112;2023-04-28T05:16:42;2.70;99.90
50989;DHT22;37008;52.210;21.112;2023-04-28T05:19:08;2.90;99.90
50989;DHT22;37008;52.210;21.112;2023-04-28T05:21:33;3.10;99.90
50989;DHT22;37008;52.210;21.112;2023-04-28T05:23:59;3.20;99.90
50989;DHT22;37008;52.210;21.112;2023-04-28T05:26:25;3.40;99.90
50989;DHT22;37008;52.210;21.112;2023-04-28T05:28:51;3.50;99.90
50989;DHT22;37008;52.210;21.112;2023-04-28T05:31:16;3.60;99.90
50989;DHT22;37008;52.210;21.112;2023-04-28T05:33:42;3.70;99.90
50989;DHT22;37008;52.210;21.112;2023-04-28T05:36:08;3.80;99.90
50989;DHT22;37008;52.210;21.112;2023-04-28T05:38:34;4.00;99.90
50989;DHT22;37008;52.210;21.112;2023-04-28T05:41:01;4.10;99.90
50989;DHT22;37008;52.210;21.112;2023-04-28T05:43:26;4.20;99.90
50989;DHT22;37008;52.210;21.112;2023-04-28T05:45:52;4.40;99.90
50989;DHT22;37008;52.210;21.112;2023-04-28T05:48:18;4.50;99.90
50989;DHT22;37008;52.210;21.112;2023-04-28T05:50:44;4.60;99.90
50989;DHT22;37008;52.210;21.112;2023-04-28T05:53:09;4.70;99.90
50989;DHT22;37008;52.210;21.112;2023-04-28T05:55:35;4.90;99.90
50989;DHT22;37008;52.210;21.112;2023-04-28T05:58:04;5.00;99.90
50989;DHT22;37008;52.210;21.112;2023-04-28T06:00:29;5.10;99.90
50989;DHT22;37008;52.210;21.112;2023-04-28T06:02:55;5.20;99.90
50989;DHT22;37008;52.210;21.112;2023-04-28T06:05:21;5.40;99.90
50989;DHT22;37008;52.210;21.112;2023-04-28T06:07:47;5.50;99.90
50989;DHT22;37008;52.210;21.112;2023-04-28T06:10:12;5.60;99.90
50989;DHT22;37008;52.210;21.112;2023-04-28T06:12:38;5.60;99.90
50989;DHT22;37008;52.210;21.112;2023-04-28T06:15:04;5.80;99.90
50989;DHT22;37008;52.210;21.112;2023-04-28T06:17:30;5.80;99.90
50989;DHT22;37008;52.210;21.112;2023-04-28T06:19:57;6.00;99.90
50989;DHT22;37008;52.210;21.112;2023-04-28T06:22:24;6.10;99.90
50989;DHT22;37008;52.210;21.112;2023-04-28T06:24:49;6.20;99.90
50989;DHT22;37008;52.210;21.112;2023-04-28T06:27:15;6.30;99.90
50989;DHT22;37008;52.210;21.112;2023-04-28T06:29:41;6.40;99.90
50989;DHT22;37008;52.210;21.112;2023-04-28T06:32:06;6.50;99.90
50989;DHT22;37008;52.210;21.112;2023-04-28T06:34:33;6.60;99.90
50989;DHT22;37008;52.210;21.112;2023-04-28T06:36:59;6.70;99.90
50989;DHT22;37008;52.210;21.112;2023-04-28T06:39:24;6.80;99.90
50989;DHT22;37008;52.210;21.112;2023-04-28T06:41:50;6.90;99.90
50989;DHT22;37008;52.210;21.112;2023-04-28T06:44:16;6.90;99.90
50989;DHT22;37008;52.210;21.112;2023-04-28T06:46:42;7.10;99.70
50989;DHT22;37008;52.210;21.112;2023-04-28T06:49:07;7.20;98.90
50989;DHT22;37008;52.210;21.112;2023-04-28T06:51:33;7.30;98.20
50989;DHT22;37008;52.210;21.112;2023-04-28T06:53:59;7.50;97.00
50989;DHT22;37008;52.210;21.112;2023-04-28T06:56:24;7.50;95.00
50989;DHT22;37008;52.210;21.112;2023-04-28T06:58:50;7.70;93.60
50989;DHT22;37008;52.210;21.112;2023-04-28T07:01:16;7.80;92.40
50989;DHT22;37008;52.210;21.112;2023-04-28T07:03:42;7.90;91.00
50989;DHT22;37008;52.210;21.112;2023-04-28T07:06:08;7.90;89.70
50989;DHT22;37008;52.210;21.112;2023-04-28T07:08:34;8.00;86.90
50989;DHT22;37008;52.210;21.112;2023-04-28T07:11:00;8.10;84.80
50989;DHT22;37008;52.210;21.112;2023-04-28T07:13:32;8.10;82.40
50989;DHT22;37008;52.210;21.112;2023-04-28T07:15:58;8.30;81.70
50989;DHT22;37008;52.210;21.112;2023-04-28T07:18:23;8.40;80.50
50989;DHT22;37008;52.210;21.112;2023-04-28T07:20:49;8.50;78.50
50989;DHT22;37008;52.210;21.112;2023-04-28T07:23:15;8.60;77.00
50989;DHT22;37008;52.210;21.112;2023-04-28T07:25:41;8.70;75.80
50989;DHT22;37008;52.210;21.112;2023-04-28T07:28:07;8.80;74.00
50989;DHT22;37008;52.210;21.112;2023-04-28T07:30:33;8.80;72.10
50989;DHT22;37008;52.210;21.112;2023-04-28T07:32:59;9.10;71.10
50989;DHT22;37008;52.210;21.112;2023-04-28T07:35:25;8.90;69.80
50989;DHT22;37008;52.210;21.112;2023-04-28T07:37:51;9.00;69.70
50989;DHT22;37008;52.210;21.112;2023-04-28T07:40:18;9.20;69.40
50989;DHT22;37008;52.210;21.112;2023-04-28T07:42:44;9.30;68.00
50989;DHT22;37008;52.210;21.112;2023-04-28T07:45:10;9.40;66.90
50989;DHT22;37008;52.210;21.112;2023-04-28T07:47:36;9.60;65.00
50989;DHT22;37008;52.210;21.112;2023-04-28T07:50:03;9.90;63.70
50989;DHT22;37008;52.210;21.112;2023-04-28T07:52:30;10.10;61.10
50989;DHT22;37008;52.210;21.112;2023-04-28T07:54:56;10.40;58.30
50989;DHT22;37008;52.210;21.112;2023-04-28T07:57:22;10.50;57.20
50989;DHT22;37008;52.210;21.112;2023-04-28T07:59:47;10.50;56.10
50989;DHT22;37008;52.210;21.112;2023-04-28T08:02:13;10.60;55.90
50989;DHT22;37008;52.210;21.112;2023-04-28T08:04:39;10.70;55.20
50989;DHT22;37008;52.210;21.112;2023-04-28T08:07:05;10.60;53.70
50989;DHT22;37008;52.210;21.112;2023-04-28T08:09:31;10.60;53.70
50989;DHT22;37008;52.210;21.112;2023-04-28T08:11:57;10.60;53.60
50989;DHT22;37008;52.210;21.112;2023-04-28T08:14:23;10.60;54.40
50989;DHT22;37008;52.210;21.112;2023-04-28T08:16:49;10.70;55.10
50989;DHT22;37008;52.210;21.112;2023-04-28T08:19:16;10.70;55.10
50989;DHT22;37008;52.210;21.112;2023-04-28T08:21:41;10.90;54.70
50989;DHT22;37008;52.210;21.112;2023-04-28T08:24:07;11.10;53.80
50989;DHT22;37008;52.210;21.112;2023-04-28T08:26:38;11.30;52.60
50989;DHT22;37008;52.210;21.112;2023-04-28T08:29:04;11.60;52.10
50989;DHT22;37008;52.210;21.112;2023-04-28T08:31:30;11.80;51.10
50989;DHT22;37008;52.210;21.112;2023-04-28T08:33:55;11.90;50.60
50989;DHT22;37008;52.210;21.112;2023-04-28T08:36:21;12.10;49.30
50989;DHT22;37008;52.210;21.112;2023-04-28T08:38:50;12.20;47.50
50989;DHT22;37008;52.210;21.112;2023-04-28T08:41:17;12.10;46.30
50989;DHT22;37008;52.210;21.112;2023-04-28T08:43:43;12.10;44.90
50989;DHT22;37008;52.210;21.112;2023-04-28T08:46:13;12.30;44.90
50989;DHT22;37008;52.210;21.112;2023-04-28T08:48:43;12.40;44.90
50989;DHT22;37008;52.210;21.112;2023-04-28T08:51:15;12.60;44.80
50989;DHT22;37008;52.210;21.112;2023-04-28T08:53:44;12.80;45.00
50989;DHT22;37008;52.210;21.112;2023-04-28T08:56:12;12.90;45.00
50989;DHT22;37008;52.210;21.112;2023-04-28T08:58:41;13.10;44.10
50989;DHT22;37008;52.210;21.112;2023-04-28T09:01:07;13.10;42.90
50989;DHT22;37008;52.210;21.112;2023-04-28T09:03:33;13.00;42.50
50989;DHT22;37008;52.210;21.112;2023-04-28T09:06:00;13.00;42.70
50989;DHT22;37008;52.210;21.112;2023-04-28T09:08:26;12.90;43.40
50989;DHT22;37008;52.210;21.112;2023-04-28T09:11:06;12.80;43.40
50989;DHT22;37008;52.210;21.112;2023-04-28T09:13:32;12.70;43.00
50989;DHT22;37008;52.210;21.112;2023-04-28T09:15:59;12.60;43.50
50989;DHT22;37008;52.210;21.112;2023-04-28T09:18:26;12.40;43.60
50989;DHT22;37008;52.210;21.112;2023-04-28T09:20:51;12.30;43.40
50989;DHT22;37008;52.210;21.112;2023-04-28T09:23:20;12.10;43.10
50989;DHT22;37008;52.210;21.112;2023-04-28T09:26:05;11.90;43.80
50989;DHT22;37008;52.210;21.112;2023-04-28T09:28:33;11.80;43.70
50989;DHT22;37008;52.210;21.112;2023-04-28T09:30:59;11.50;44.00
50989;DHT22;37008;52.210;21.112;2023-04-28T09:33:25;11.40;44.30
50989;DHT22;37008;52.210;21.112;2023-04-28T09:35:51;11.20;44.60
50989;DHT22;37008;52.210;21.112;2023-04-28T09:38:19;11.10;44.80
50989;DHT22;37008;52.210;21.112;2023-04-28T09:40:59;10.90;45.20
50989;DHT22;37008;52.210;21.112;2023-04-28T09:45:52;10.90;45.50
50989;DHT22;37008;52.210;21.112;2023-04-28T09:48:35;10.80;45.50
50989;DHT22;37008;52.210;21.112;2023-04-28T09:51:05;10.90;45.70
50989;DHT22;37008;52.210;21.112;2023-04-28T09:53:32;11.00;45.90
50989;DHT22;37008;52.210;21.112;2023-04-28T09:56:00;11.20;46.40
50989;DHT22;37008;52.210;21.112;2023-04-28T09:58:27;11.50;45.60
50989;DHT22;37008;52.210;21.112;2023-04-28T10:00:57;11.80;45.30
50989;DHT22;37008;52.210;21.112;2023-04-28T10:03:26;12.00;45.20
50989;DHT22;37008;52.210;21.112;2023-04-28T10:05:52;12.20;45.40
50989;DHT22;37008;52.210;21.112;2023-04-28T10:08:22;12.50;46.60
50989;DHT22;37008;52.210;21.112;2023-04-28T10:10:49;13.00;47.30
50989;DHT22;37008;52.210;21.112;2023-04-28T10:13:18;13.40;47.30
50989;DHT22;37008;52.210;21.112;2023-04-28T10:15:45;13.80;45.80
50989;DHT22;37008;52.210;21.112;2023-04-28T10:18:12;14.00;45.40
50989;DHT22;37008;52.210;21.112;2023-04-28T10:20:44;14.00;44.80
50989;DHT22;37008;52.210;21.112;2023-04-28T10:26:16;14.00;44.90
50989;DHT22;37008;52.210;21.112;2023-04-28T10:28:48;14.00;45.00
50989;DHT22;37008;52.210;21.112;2023-04-28T10:31:15;13.90;45.00
50989;DHT22;37008;52.210;21.112;2023-04-28T10:33:42;14.00;45.30
50989;DHT22;37008;52.210;21.112;2023-04-28T10:36:08;14.30;45.60
50989;DHT22;37008;52.210;21.112;2023-04-28T10:38:34;14.60;44.10
50989;DHT22;37008;52.210;21.112;2023-04-28T10:41:01;14.70;44.20
50989;DHT22;37008;52.210;21.112;2023-04-28T10:56:27;15.80;42.90
50989;DHT22;37008;52.210;21.112;2023-04-28T10:58:56;15.80;41.40
50989;DHT22;37008;52.210;21.112;2023-04-28T11:01:32;15.80;41.30
50989;DHT22;37008;52.210;21.112;2023-04-28T11:04:06;15.70;41.00
50989;DHT22;37008;52.210;21.112;2023-04-28T11:06:40;15.80;40.90
50989;DHT22;37008;52.210;21.112;2023-04-28T11:16:58;15.40;38.80
50989;DHT22;37008;52.210;21.112;2023-04-28T11:19:29;15.40;39.70
50989;DHT22;37008;52.210;21.112;2023-04-28T11:21:56;15.50;40.20
50989;DHT22;37008;52.210;21.112;2023-04-28T11:24:26;15.70;40.20
50989;DHT22;37008;52.210;21.112;2023-04-28T11:26:56;16.00;40.10
50989;DHT22;37008;52.210;21.112;2023-04-28T11:29:40;16.10;38.60
50989;DHT22;37008;52.210;21.112;2023-04-28T11:32:08;16.30;38.20
50989;DHT22;37008;52.210;21.112;2023-04-28T11:34:35;16.30;39.00
50989;DHT22;37008;52.210;21.112;2023-04-28T11:37:01;16.40;40.20
50989;DHT22;37008;52.210;21.112;2023-04-28T11:39:29;16.30;40.60
50989;DHT22;37008;52.210;21.112;2023-04-28T11:41:56;16.20;39.90
50989;DHT22;37008;52.210;21.112;2023-04-28T11:44:29;16.10;40.60
50989;DHT22;37008;52.210;21.112;2023-04-28T11:46:57;16.20;40.40
50989;DHT22;37008;52.210;21.112;2023-04-28T11:49:26;16.20;39.90
50989;DHT22;37008;52.210;21.112;2023-04-28T11:52:05;16.20;39.50
50989;DHT22;37008;52.210;21.112;2023-04-28T11:54:31;16.00;39.10
50989;DHT22;37008;52.210;21.112;2023-04-28T11:56:58;15.80;39.60
50989;DHT22;37008;52.210;21.112;2023-04-28T11:59:24;15.60;40.30
50989;DHT22;37008;52.210;21.112;2023-04-28T12:01:52;15.40;39.90
50989;DHT22;37008;52.210;21.112;2023-04-28T12:04:34;15.40;39.70
50989;DHT22;37008;52.210;21.112;2023-04-28T12:07:07;15.50;39.70
50989;DHT22;37008;52.210;21.112;2023-04-28T12:09:35;15.80;40.50
50989;DHT22;37008;52.210;21.112;2023-04-28T12:12:06;16.10;40.10
50989;DHT22;37008;52.210;21.112;2023-04-28T12:14:55;16.30;39.60
50989;DHT22;37008;52.210;21.112;2023-04-28T12:17:29;16.40;39.20
50989;DHT22;37008;52.210;21.112;2023-04-28T12:19:56;16.40;38.50
50989;DHT22;37008;52.210;21.112;2023-04-28T12:22:23;16.40;37.70
50989;DHT22;37008;52.210;21.112;2023-04-28T12:25:09;16.20;37.30
50989;DHT22;37008;52.210;21.112;2023-04-28T12:27:36;15.70;35.70
50989;DHT22;37008;52.210;21.112;2023-04-28T12:32:46;14.70;36.10
50989;DHT22;37008;52.210;21.112;2023-04-28T12:35:11;14.60;36.60
50989;DHT22;37008;52.210;21.112;2023-04-28T12:37:37;14.40;36.70
50989;DHT22;37008;52.210;21.112;2023-04-28T12:40:05;14.20;37.00
50989;DHT22;37008;52.210;21.112;2023-04-28T12:42:31;14.10;37.70
50989;DHT22;37008;52.210;21.112;2023-04-28T12:44:57;14.00;38.20
50989;DHT22;37008;52.210;21.112;2023-04-28T12:47:23;14.00;38.50
50989;DHT22;37008;52.210;21.112;2023-04-28T12:49:49;13.90;38.00
50989;DHT22;37008;52.210;21.112;2023-04-28T12:52:18;14.00;37.60
50989;DHT22;37008;52.210;21.112;2023-04-28T12:54:43;14.20;37.80
50989;DHT22;37008;52.210;21.112;2023-04-28T12:57:12;14.30;38.00
50989;DHT22;37008;52.210;21.112;2023-04-28T12:59:38;14.60;38.60
50989;DHT22;37008;52.210;21.112;2023-04-28T13:02:04;14.90;38.90
50989;DHT22;37008;52.210;21.112;2023-04-28T13:04:30;15.10;38.60
50989;DHT22;37008;52.210;21.112;2023-04-28T13:06:57;15.30;38.60
50989;DHT22;37008;52.210;21.112;2023-04-28T13:09:24;15.50;38.60
50989;DHT22;37008;52.210;21.112;2023-04-28T13:11:50;15.70;37.90
50989;DHT22;37008;52.210;21.112;2023-04-28T13:14:18;15.80;37.70
50989;DHT22;37008;52.210;21.112;2023-04-28T13:16:44;16.00;37.30
50989;DHT22;37008;52.210;21.112;2023-04-28T13:19:10;16.10;37.00
50989;DHT22;37008;52.210;21.112;2023-04-28T13:21:39;16.20;37.20
50989;DHT22;37008;52.210;21.112;2023-04-28T13:24:06;16.30;38.10
50989;DHT22;37008;52.210;21.112;2023-04-28T13:26:32;16.30;36.00
50989;DHT22;37008;52.210;21.112;2023-04-28T13:28:58;16.40;36.60
50989;DHT22;37008;52.210;21.112;2023-04-28T13:31:25;16.30;36.10
50989;DHT22;37008;52.210;21.112;2023-04-28T13:33:50;16.20;35.50
50989;DHT22;37008;52.210;21.112;2023-04-28T13:36:16;16.10;35.60
50989;DHT22;37008;52.210;21.112;2023-04-28T13:38:42;16.00;35.70
50989;DHT22;37008;52.210;21.112;2023-04-28T13:41:10;15.90;36.00
50989;DHT22;37008;52.210;21.112;2023-04-28T13:43:35;15.70;36.00
50989;DHT22;37008;52.210;21.112;2023-04-28T13:46:01;15.50;36.50
50989;DHT22;37008;52.210;21.112;2023-04-28T13:48:33;15.20;37.30
50989;DHT22;37008;52.210;21.112;2023-04-28T13:51:00;15.10;38.40
50989;DHT22;37008;52.210;21.112;2023-04-28T13:53:26;14.90;38.10
50989;DHT22;37008;52.210;21.112;2023-04-28T13:55:52;14.80;38.40
50989;DHT22;37008;52.210;21.112;2023-04-28T13:58:20;14.70;38.40
50989;DHT22;37008;52.210;21.112;2023-04-28T14:00:46;14.50;37.90
50989;DHT22;37008;52.210;21.112;2023-04-28T14:03:12;14.40;38.20
50989;DHT22;37008;52.210;21.112;2023-04-28T14:05:37;14.20;39.00
50989;DHT22;37008;52.210;21.112;2023-04-28T14:08:03;14.10;39.90
50989;DHT22;37008;52.210;21.112;2023-04-28T14:10:29;14.00;39.60
50989;DHT22;37008;52.210;21.112;2023-04-28T14:12:55;14.00;39.70
50989;DHT22;37008;52.210;21.112;2023-04-28T14:15:21;14.00;39.50
50989;DHT22;37008;52.210;21.112;2023-04-28T14:17:47;14.00;39.70
50989;DHT22;37008;52.210;21.112;2023-04-28T14:20:12;14.10;39.90
50989;DHT22;37008;52.210;21.112;2023-04-28T14:22:39;14.20;40.30
50989;DHT22;37008;52.210;21.112;2023-04-28T14:25:05;14.40;40.30
50989;DHT22;37008;52.210;21.112;2023-04-28T14:27:31;14.60;39.80
50989;DHT22;37008;52.210;21.112;2023-04-28T14:29:58;14.60;39.10
50989;DHT22;37008;52.210;21.112;2023-04-28T14:32:24;14.60;39.30
50989;DHT22;37008;52.210;21.112;2023-04-28T14:34:50;14.90;39.70
50989;DHT22;37008;52.210;21.112;2023-04-28T14:37:16;15.30;40.00
50989;DHT22;37008;52.210;21.112;2023-04-28T14:39:43;16.10;40.00
50989;DHT22;37008;52.210;21.112;2023-04-28T14:42:08;17.20;38.80
50989;DHT22;37008;52.210;21.112;2023-04-28T14:44:34;17.30;38.30
50989;DHT22;37008;52.210;21.112;2023-04-28T14:47:01;17.10;38.40
50989;DHT22;37008;52.210;21.112;2023-04-28T14:49:26;17.80;38.00
50989;DHT22;37008;52.210;21.112;2023-04-28T14:51:52;18.80;36.80
50989;DHT22;37008;52.210;21.112;2023-04-28T14:54:19;19.60;35.10
50989;DHT22;37008;52.210;21.112;2023-04-28T14:56:46;19.70;34.60
50989;DHT22;37008;52.210;21.112;2023-04-28T14:59:12;19.20;34.90
50989;DHT22;37008;52.210;21.112;2023-04-28T15:01:38;19.10;35.60
50989;DHT22;37008;52.210;21.112;2023-04-28T15:04:04;19.20;35.90
50989;DHT22;37008;52.210;21.112;2023-04-28T15:06:30;19.10;36.30
50989;DHT22;37008;52.210;21.112;2023-04-28T15:08:57;19.70;36.10
50989;DHT22;37008;52.210;21.112;2023-04-28T15:11:22;20.60;34.90
50989;DHT22;37008;52.210;21.112;2023-04-28T15:13:48;20.40;34.20
50989;DHT22;37008;52.210;21.112;2023-04-28T15:16:14;19.70;34.40
50989;DHT22;37008;52.210;21.112;2023-04-28T15:18:40;18.80;35.60
50989;DHT22;37008;52.210;21.112;2023-04-28T15:21:06;18.00;36.40
50989;DHT22;37008;52.210;21.112;2023-04-28T15:23:33;17.40;37.10
50989;DHT22;37008;52.210;21.112;2023-04-28T15:25:58;17.10;38.40
50989;DHT22;37008;52.210;21.112;2023-04-28T15:28:24;16.90;39.10
50989;DHT22;37008;52.210;21.112;2023-04-28T15:30:49;16.90;39.50
50989;DHT22;37008;52.210;21.112;2023-04-28T15:33:15;17.30;39.60
50989;DHT22;37008;52.210;21.112;2023-04-28T15:35:44;17.00;40.60
50989;DHT22;37008;52.210;21.112;2023-04-28T15:38:11;16.60;40.30
50989;DHT22;37008;52.210;21.112;2023-04-28T15:40:40;16.20;40.90
50989;DHT22;37008;52.210;21.112;2023-04-28T15:43:05;15.80;41.30
50989;DHT22;37008;52.210;21.112;2023-04-28T15:45:32;15.60;41.00